sensor_id;sensor_type;location;lat;lon;timestamp;pressure;altitude;pressure_sealevel;temperature;humidity
7026;BME280;3554;42.132;24.786;2022-07-23T00:00:06;99460.91;;;24.87;99.98
7026;BME280;3554;42.132;24.786;2022-07-23T00:02:33;99453.50;;;24.81;100.00
7026;BME280;3554;42.132;24.786;2022-07-23T00:05:00;99462.44;;;24.72;100.00
7026;BME280;3554;42.132;24.786;2022-07-23T00:07:27;99454.47;;;24.80;100.00
7026;BME280;3554;42.132;24.786;2022-07-23T00:09:56;99466.19;;;24.79;98.88
7026;BME280;3554;42.132;24.786;2022-07-23T00:12:22;99465.25;;;24.71;99.60
7026;BME280;3554;42.132;24.786;2022-07-23T00:14:49;99457.31;;;24.69;100.00
7026;BME280;3554;42.132;24.786;2022-07-23T00:17:16;99462.44;;;24.72;100.00
7026;BME280;3554;42.132;24.786;2022-07-23T00:19:43;99457.94;;;24.63;100.00
7026;BME280;3554;42.132;24.786;2022-07-23T00:22:10;99457.94;;;24.63;100.00
7026;BME280;3554;42.132;24.786;2022-07-23T00:24:37;99461.50;;;24.54;100.00
7026;BME280;3554;42.132;24.786;2022-07-23T00:27:05;99352.88;;;23.88;100.00
7026;BME280;3554;42.132;24.786;2022-07-23T00:29:32;99464.75;;;24.48;100.00
7026;BME280;3554;42.132;24.786;2022-07-23T00:31:58;99459.25;;;24.50;100.00
7026;BME280;3554;42.132;24.786;2022-07-23T00:34:25;99453.75;;;24.51;100.00
7026;BME280;3554;42.132;24.786;2022-07-23T00:36:52;99456.44;;;24.51;100.00
7026;BME280;3554;42.132;24.786;2022-07-23T00:39:19;99451.22;;;24.50;100.00
7026;BME280;3554;42.132;24.786;2022-07-23T00:41:47;99466.72;;;24.46;100.00
7026;BME280;3554;42.132;24.786;2022-07-23T00:44:17;99464.50;;;24.42;100.00
7026;BME280;3554;42.132;24.786;2022-07-23T00:46:49;99463.25;;;24.36;100.00
7026;BME280;3554;42.132;24.786;2022-07-23T00:49:18;99464.94;;;24.37;100.00
7026;BME280;3554;42.132;24.786;2022-07-23T00:51:45;99466.50;;;24.30;100.00
7026;BME280;3554;42.132;24.786;2022-07-23T00:54:12;99460.66;;;24.17;100.00
7026;BME280;3554;42.132;24.786;2022-07-23T00:56:41;99459.34;;;24.21;100.00
7026;BME280;3554;42.132;24.786;2022-07-23T00:59:08;99467.19;;;24.32;100.00
7026;BME280;3554;42.132;24.786;2022-07-23T01:01:37;99458.06;;;24.25;100.00
7026;BME280;3554;42.132;24.786;2022-07-23T01:04:04;99468.94;;;24.23;100.00
7026;BME280;3554;42.132;24.786;2022-07-23T01:06:35;99467.38;;;24.21;100.00
7026;BME280;3554;42.132;24.786;2022-07-23T01:09:04;99471.63;;;24.14;100.00
7026;BME280;3554;42.132;24.786;2022-07-23T01:11:31;99465.44;;;24.13;100.00
7026;BME280;3554;42.132;24.786;2022-07-23T01:13:59;99460.13;;;24.04;100.00
7026;BME280;3554;42.132;24.786;2022-07-23T01:16:26;99464.63;;;24.03;100.00
7026;BME280;3554;42.132;24.786;2022-07-23T01:18:54;99465.16;;;24.07;100.00
7026;BME280;3554;42.132;24.786;2022-07-23T01:21:21;99461.13;;;24.03;100.00
7026;BME280;3554;42.132;24.786;2022-07-23T01:23:49;99462.78;;;24.04;100.00
7026;BME280;3554;42.132;24.786;2022-07-23T01:26:16;99459.81;;;24.07;100.00
7026;BME280;3554;42.132;24.786;2022-07-23T01:28:43;99447.84;;;24.01;100.00
7026;BME280;3554;42.132;24.786;2022-07-23T01:31:10;99462.22;;;24.10;100.00
7026;BME280;3554;42.132;24.786;2022-07-23T01:33:37;99460.13;;;24.04;100.00
7026;BME280;3554;42.132;24.786;2022-07-23T01:36:05;99456.03;;;23.90;100.00
7026;BME280;3554;42.132;24.786;2022-07-23T01:38:32;99462.34;;;23.99;100.00
7026;BME280;3554;42.132;24.786;2022-07-23T01:41:00;99470.09;;;24.02;100.00
7026;BME280;3554;42.132;24.786;2022-07-23T01:43:27;99471.94;;;24.01;100.00
7026;BME280;3554;42.132;24.786;2022-07-23T01:45:54;99466.00;;;23.98;100.00
7026;BME280;3554;42.132;24.786;2022-07-23T01:48:20;99456.88;;;24.00;100.00
7026;BME280;3554;42.132;24.786;2022-07-23T01:50:47;99460.09;;;23.94;100.00
7026;BME280;3554;42.132;24.786;2022-07-23T01:53:15;99446.22;;;23.81;100.00
7026;BME280;3554;42.132;24.786;2022-07-23T01:55:42;99443.13;;;23.76;100.00
7026;BME280;3554;42.132;24.786;2022-07-23T01:58:10;99457.16;;;23.78;100.00
7026;BME280;3554;42.132;24.786;2022-07-23T02:00:37;99461.28;;;23.63;100.00
7026;BME280;3554;42.132;24.786;2022-07-23T02:03:04;99458.06;;;23.69;100.00
7026;BME280;3554;42.132;24.786;2022-07-23T02:05:31;99453.13;;;23.65;100.00
7026;BME280;3554;42.132;24.786;2022-07-23T02:07:59;99443.16;;;23.48;100.00
7026;BME280;3554;42.132;24.786;2022-07-23T02:10:26;99432.16;;;23.41;100.00
7026;BME280;3554;42.132;24.786;2022-07-23T02:12:53;99459.03;;;23.59;100.00
7026;BME280;3554;42.132;24.786;2022-07-23T02:15:22;99426.69;;;23.43;100.00
7026;BME280;3554;42.132;24.786;2022-07-23T02:17:49;99438.63;;;23.58;100.00
7026;BME280;3554;42.132;24.786;2022-07-23T02:20:16;99458.16;;;23.68;100.00
7026;BME280;3554;42.132;24.786;2022-07-23T02:22:42;99419.25;;;23.46;100.00
7026;BME280;3554;42.132;24.786;2022-07-23T02:25:09;99453.81;;;23.67;100.00
7026;BME280;3554;42.132;24.786;2022-07-23T02:27:36;99455.50;;;23.68;100.00
7026;BME280;3554;42.132;24.786;2022-07-23T02:30:05;99461.00;;;23.66;100.00
7026;BME280;3554;42.132;24.786;2022-07-23T02:32:33;99457.34;;;23.67;100.00
7026;BME280;3554;42.132;24.786;2022-07-23T02:35:01;99454.13;;;23.64;100.00
7026;BME280;3554;42.132;24.786;2022-07-23T02:37:28;99455.53;;;23.58;100.00
7026;BME280;3554;42.132;24.786;2022-07-23T02:39:55;99450.88;;;23.51;100.00
7026;BME280;3554;42.132;24.786;2022-07-23T02:42:22;99459.75;;;23.42;100.00
7026;BME280;3554;42.132;24.786;2022-07-23T02:44:49;99461.31;;;23.44;100.00
7026;BME280;3554;42.132;24.786;2022-07-23T02:47:16;99429.91;;;23.17;100.00
7026;BME280;3554;42.132;24.786;2022-07-23T02:49:45;99470.13;;;23.45;100.00
7026;BME280;3554;42.132;24.786;2022-07-23T02:52:11;99454.13;;;23.35;100.00
7026;BME280;3554;42.132;24.786;2022-07-23T02:54:38;99473.66;;;23.45;100.00
7026;BME280;3554;42.132;24.786;2022-07-23T02:57:05;99462.69;;;23.48;100.00
7026;BME280;3554;42.132;24.786;2022-07-23T02:59:32;99466.22;;;23.49;100.00
7026;BME280;3554;42.132;24.786;2022-07-23T03:01:59;99479.44;;;23.31;100.00
7026;BME280;3554;42.132;24.786;2022-07-23T03:04:25;99471.69;;;23.38;100.00
7026;BME280;3554;42.132;24.786;2022-07-23T03:06:54;99467.34;;;23.46;100.00
7026;BME280;3554;42.132;24.786;2022-07-23T03:09:20;99478.47;;;23.51;100.00
7026;BME280;3554;42.132;24.786;2022-07-23T03:11:47;99462.41;;;23.42;100.00
7026;BME280;3554;42.132;24.786;2022-07-23T03:14:14;99472.41;;;23.49;100.00
7026;BME280;3554;42.132;24.786;2022-07-23T03:16:41;99444.72;;;23.41;100.00
7026;BME280;3554;42.132;24.786;2022-07-23T03:19:08;99479.13;;;23.63;100.00
7026;BME280;3554;42.132;24.786;2022-07-23T03:21:35;99471.97;;;23.63;100.00
7026;BME280;3554;42.132;24.786;2022-07-23T03:24:07;99485.75;;;23.68;100.00
7026;BME280;3554;42.132;24.786;2022-07-23T03:26:35;99480.69;;;23.56;100.00
7026;BME280;3554;42.132;24.786;2022-07-23T03:29:02;99488.28;;;23.51;100.00
7026;BME280;3554;42.132;24.786;2022-07-23T03:31:29;99480.13;;;23.52;100.00
7026;BME280;3554;42.132;24.786;2022-07-23T03:33:56;99487.31;;;23.61;100.00
7026;BME280;3554;42.132;24.786;2022-07-23T03:36:23;99471.13;;;23.63;100.00
7026;BME280;3554;42.132;24.786;2022-07-23T03:38:50;99481.66;;;23.64;100.00
7026;BME280;3554;42.132;24.786;2022-07-23T03:41:19;99490.91;;;23.98;100.00
7026;BME280;3554;42.132;24.786;2022-07-23T03:43:46;99493.31;;;24.20;100.00
7026;BME280;3554;42.132;24.786;2022-07-23T03:46:13;99492.88;;;24.62;100.00
7026;BME280;3554;42.132;24.786;2022-07-23T03:48:40;99491.03;;;24.99;100.00
7026;BME280;3554;42.132;24.786;2022-07-23T03:51:07;99494.09;;;25.49;100.00
7026;BME280;3554;42.132;24.786;2022-07-23T03:53:34;99500.56;;;25.81;100.00
7026;BME280;3554;42.132;24.786;2022-07-23T03:56:01;99489.59;;;25.92;97.16
7026;BME280;3554;42.132;24.786;2022-07-23T03:58:29;99495.19;;;26.16;94.54
7026;BME280;3554;42.132;24.786;2022-07-23T04:00:56;99479.06;;;26.42;90.78
7026;BME280;3554;42.132;24.786;2022-07-23T04:03:23;99497.06;;;26.75;88.24
7026;BME280;3554;42.132;24.786;2022-07-23T04:05:49;99475.13;;;26.96;85.97
7026;BME280;3554;42.132;24.786;2022-07-23T04:08:16;99498.44;;;27.37;83.86
7026;BME280;3554;42.132;24.786;2022-07-23T04:10:43;99498.00;;;27.66;80.97
7026;BME280;3554;42.132;24.786;2022-07-23T04:13:10;99499.38;;;27.94;78.24
7026;BME280;3554;42.132;24.786;2022-07-23T04:15:38;99504.19;;;28.30;74.73
7026;BME280;3554;42.132;24.786;2022-07-23T04:18:05;99459.47;;;28.13;70.45
7026;BME280;3554;42.132;24.786;2022-07-23T04:20:33;99511.63;;;28.20;71.24
7026;BME280;3554;42.132;24.786;2022-07-23T04:23:00;99509.78;;;28.05;74.58
7026;BME280;3554;42.132;24.786;2022-07-23T04:25:27;99502.66;;;28.52;66.80
7026;BME280;3554;42.132;24.786;2022-07-23T04:27:54;99520.03;;;28.25;69.40
7026;BME280;3554;42.132;24.786;2022-07-23T04:30:20;99504.03;;;27.60;76.40
7026;BME280;3554;42.132;24.786;2022-07-23T04:32:49;99512.09;;;27.52;78.50
7026;BME280;3554;42.132;24.786;2022-07-23T04:35:15;99516.66;;;28.31;71.35
7026;BME280;3554;42.132;24.786;2022-07-23T04:37:42;99513.44;;;28.52;67.35
7026;BME280;3554;42.132;24.786;2022-07-23T04:40:10;99507.94;;;28.84;65.33
7026;BME280;3554;42.132;24.786;2022-07-23T04:42:37;99513.06;;;29.02;62.51
7026;BME280;3554;42.132;24.786;2022-07-23T04:45:05;99516.38;;;29.50;58.61
7026;BME280;3554;42.132;24.786;2022-07-23T04:47:32;99529.66;;;29.60;56.49
7026;BME280;3554;42.132;24.786;2022-07-23T04:50:00;99526.66;;;30.00;55.96
7026;BME280;3554;42.132;24.786;2022-07-23T04:52:27;99525.16;;;29.75;54.93
7026;BME280;3554;42.132;24.786;2022-07-23T04:54:54;99529.69;;;30.20;54.58
7026;BME280;3554;42.132;24.786;2022-07-23T04:57:20;99531.47;;;30.79;52.23
7026;BME280;3554;42.132;24.786;2022-07-23T04:59:47;99535.19;;;30.78;51.02
7026;BME280;3554;42.132;24.786;2022-07-23T05:02:14;99526.88;;;30.80;50.86
7026;BME280;3554;42.132;24.786;2022-07-23T05:04:41;99538.28;;;31.04;50.64
7026;BME280;3554;42.132;24.786;2022-07-23T05:07:09;99535.44;;;30.39;49.72
7026;BME280;3554;42.132;24.786;2022-07-23T05:09:36;99519.72;;;29.83;53.35
7026;BME280;3554;42.132;24.786;2022-07-23T05:12:04;99517.59;;;29.93;54.35
7026;BME280;3554;42.132;24.786;2022-07-23T05:14:31;99533.13;;;30.36;51.71
7026;BME280;3554;42.132;24.786;2022-07-23T05:16:57;99541.34;;;31.01;51.67
7026;BME280;3554;42.132;24.786;2022-07-23T05:19:24;99529.66;;;31.66;48.21
7026;BME280;3554;42.132;24.786;2022-07-23T05:21:51;99527.50;;;31.97;47.49
7026;BME280;3554;42.132;24.786;2022-07-23T05:24:19;99532.00;;;32.38;46.10
7026;BME280;3554;42.132;24.786;2022-07-23T05:26:46;99520.91;;;32.54;45.34
7026;BME280;3554;42.132;24.786;2022-07-23T05:29:13;99529.44;;;32.86;43.87
7026;BME280;3554;42.132;24.786;2022-07-23T05:31:40;99533.06;;;32.99;43.95
7026;BME280;3554;42.132;24.786;2022-07-23T05:34:07;99527.16;;;32.55;43.58
7026;BME280;3554;42.132;24.786;2022-07-23T05:36:34;99517.25;;;31.21;46.44
7026;BME280;3554;42.132;24.786;2022-07-23T05:39:01;99516.25;;;31.07;49.08
7026;BME280;3554;42.132;24.786;2022-07-23T05:41:29;99514.00;;;31.82;47.56
7026;BME280;3554;42.132;24.786;2022-07-23T05:43:56;99520.41;;;31.96;45.65
7026;BME280;3554;42.132;24.786;2022-07-23T05:46:41;99516.00;;;31.52;46.89
7026;BME280;3554;42.132;24.786;2022-07-23T05:49:08;99518.03;;;30.71;48.55
7026;BME280;3554;42.132;24.786;2022-07-23T05:51:35;99515.63;;;30.91;49.59
7026;BME280;3554;42.132;24.786;2022-07-23T05:54:01;99519.22;;;31.27;48.95
7026;BME280;3554;42.132;24.786;2022-07-23T05:56:30;99524.16;;;31.95;46.56
7026;BME280;3554;42.132;24.786;2022-07-23T05:58:56;99518.84;;;32.08;45.75
7026;BME280;3554;42.132;24.786;2022-07-23T06:01:23;99524.09;;;32.09;46.00
7026;BME280;3554;42.132;24.786;2022-07-23T06:03:50;99529.88;;;32.55;45.41
7026;BME280;3554;42.132;24.786;2022-07-23T06:06:17;99503.63;;;32.07;45.52
7026;BME280;3554;42.132;24.786;2022-07-23T06:08:44;99523.88;;;32.38;44.96
7026;BME280;3554;42.132;24.786;2022-07-23T06:11:10;99521.53;;;31.44;49.09
7026;BME280;3554;42.132;24.786;2022-07-23T06:13:39;99525.69;;;32.04;47.62
7026;BME280;3554;42.132;24.786;2022-07-23T06:16:06;99515.91;;;32.30;46.02
7026;BME280;3554;42.132;24.786;2022-07-23T06:18:32;99524.66;;;32.53;47.11
7026;BME280;3554;42.132;24.786;2022-07-23T06:20:59;99517.06;;;32.42;47.28
7026;BME280;3554;42.132;24.786;2022-07-23T06:23:26;99527.22;;;32.96;45.79
7026;BME280;3554;42.132;24.786;2022-07-23T06:25:53;99526.09;;;32.84;44.72
7026;BME280;3554;42.132;24.786;2022-07-23T06:28:20;99519.56;;;32.16;47.07
7026;BME280;3554;42.132;24.786;2022-07-23T06:30:48;99518.81;;;32.57;45.27
7026;BME280;3554;42.132;24.786;2022-07-23T06:33:15;99528.91;;;32.69;44.69
7026;BME280;3554;42.132;24.786;2022-07-23T06:35:42;99519.56;;;32.72;45.39
7026;BME280;3554;42.132;24.786;2022-07-23T06:38:08;99526.81;;;32.65;43.62
7026;BME280;3554;42.132;24.786;2022-07-23T06:40:35;99510.91;;;32.06;45.76
7026;BME280;3554;42.132;24.786;2022-07-23T06:43:02;99513.91;;;31.54;47.83
7026;BME280;3554;42.132;24.786;2022-07-23T06:45:29;99506.69;;;31.62;49.91
7026;BME280;3554;42.132;24.786;2022-07-23T06:47:57;99510.38;;;32.17;50.10
7026;BME280;3554;42.132;24.786;2022-07-23T06:50:24;99518.69;;;32.65;46.20
7026;BME280;3554;42.132;24.786;2022-07-23T06:52:51;99515.56;;;32.68;45.94
7026;BME280;3554;42.132;24.786;2022-07-23T06:55:18;99508.88;;;32.70;46.50
7026;BME280;3554;42.132;24.786;2022-07-23T06:57:45;99510.38;;;33.13;46.54
7026;BME280;3554;42.132;24.786;2022-07-23T07:00:12;99512.50;;;33.18;45.46
7026;BME280;3554;42.132;24.786;2022-07-23T07:02:39;99512.88;;;33.08;44.87
7026;BME280;3554;42.132;24.786;2022-07-23T07:05:07;99466.63;;;32.48;45.23
7026;BME280;3554;42.132;24.786;2022-07-23T07:07:35;99506.59;;;33.08;45.40
7026;BME280;3554;42.132;24.786;2022-07-23T07:10:02;99495.81;;;33.27;43.75
7026;BME280;3554;42.132;24.786;2022-07-23T07:12:29;99497.28;;;33.23;42.91
7026;BME280;3554;42.132;24.786;2022-07-23T07:14:56;99497.09;;;33.38;44.15
7026;BME280;3554;42.132;24.786;2022-07-23T07:17:23;99494.53;;;33.10;44.78
7026;BME280;3554;42.132;24.786;2022-07-23T07:19:50;99489.97;;;33.24;45.47
7026;BME280;3554;42.132;24.786;2022-07-23T07:22:18;99493.88;;;33.75;42.85
7026;BME280;3554;42.132;24.786;2022-07-23T07:24:45;99495.72;;;33.62;41.66
7026;BME280;3554;42.132;24.786;2022-07-23T07:27:12;99484.91;;;33.75;41.17
7026;BME280;3554;42.132;24.786;2022-07-23T07:29:38;99488.47;;;33.95;41.04
7026;BME280;3554;42.132;24.786;2022-07-23T07:32:05;99487.41;;;33.83;42.03
7026;BME280;3554;42.132;24.786;2022-07-23T07:34:32;99489.44;;;33.61;43.18
7026;BME280;3554;42.132;24.786;2022-07-23T07:36:59;99486.56;;;33.76;41.35
7026;BME280;3554;42.132;24.786;2022-07-23T07:39:27;99485.13;;;34.19;41.02
7026;BME280;3554;42.132;24.786;2022-07-23T07:41:54;99455.41;;;34.37;39.68
7026;BME280;3554;42.132;24.786;2022-07-23T07:44:21;99472.59;;;34.44;39.25
7026;BME280;3554;42.132;24.786;2022-07-23T07:46:48;99476.66;;;34.79;39.50
7026;BME280;3554;42.132;24.786;2022-07-23T07:49:15;99477.09;;;34.76;40.96
7026;BME280;3554;42.132;24.786;2022-07-23T07:51:42;99481.22;;;34.98;39.46
7026;BME280;3554;42.132;24.786;2022-07-23T07:54:09;99476.63;;;34.92;40.15
7026;BME280;3554;42.132;24.786;2022-07-23T07:56:37;99476.16;;;34.05;39.27
7026;BME280;3554;42.132;24.786;2022-07-23T07:59:05;99466.69;;;33.62;40.51
7026;BME280;3554;42.132;24.786;2022-07-23T08:01:32;99463.38;;;33.93;40.61
7026;BME280;3554;42.132;24.786;2022-07-23T08:03:58;99457.94;;;34.19;40.27
7026;BME280;3554;42.132;24.786;2022-07-23T08:06:25;99471.13;;;34.48;38.97
7026;BME280;3554;42.132;24.786;2022-07-23T08:08:52;99462.06;;;34.67;38.83
7026;BME280;3554;42.132;24.786;2022-07-23T08:11:19;99467.56;;;34.28;38.62
7026;BME280;3554;42.132;24.786;2022-07-23T08:13:47;99466.28;;;33.72;39.16
7026;BME280;3554;42.132;24.786;2022-07-23T08:16:14;99457.94;;;34.25;40.13
7026;BME280;3554;42.132;24.786;2022-07-23T08:18:41;99458.72;;;34.65;38.43
7026;BME280;3554;42.132;24.786;2022-07-23T08:21:08;99455.31;;;34.83;39.59
7026;BME280;3554;42.132;24.786;2022-07-23T08:23:35;99451.09;;;34.87;37.51
7026;BME280;3554;42.132;24.786;2022-07-23T08:26:02;99457.97;;;35.02;37.49
7026;BME280;3554;42.132;24.786;2022-07-23T08:28:29;99440.03;;;34.82;37.81
7026;BME280;3554;42.132;24.786;2022-07-23T08:30:59;99447.94;;;34.90;38.00
7026;BME280;3554;42.132;24.786;2022-07-23T08:33:27;99446.06;;;34.90;36.90
7026;BME280;3554;42.132;24.786;2022-07-23T08:35:53;99444.44;;;34.76;36.67
7026;BME280;3554;42.132;24.786;2022-07-23T08:38:21;99444.41;;;34.96;35.72
7026;BME280;3554;42.132;24.786;2022-07-23T08:40:50;99432.72;;;35.26;36.51
7026;BME280;3554;42.132;24.786;2022-07-23T08:43:19;99425.50;;;35.45;35.33
7026;BME280;3554;42.132;24.786;2022-07-23T08:45:49;99431.28;;;35.55;34.79
7026;BME280;3554;42.132;24.786;2022-07-23T08:48:18;99423.06;;;35.62;35.07
7026;BME280;3554;42.132;24.786;2022-07-23T08:50:47;99435.03;;;35.85;34.55
7026;BME280;3554;42.132;24.786;2022-07-23T08:53:15;99421.09;;;35.37;35.55
7026;BME280;3554;42.132;24.786;2022-07-23T08:55:43;99388.88;;;35.34;35.58
7026;BME280;3554;42.132;24.786;2022-07-23T08:58:11;99395.38;;;35.02;35.19
7026;BME280;3554;42.132;24.786;2022-07-23T09:00:38;99418.22;;;34.95;35.87
7026;BME280;3554;42.132;24.786;2022-07-23T09:03:05;99421.94;;;35.07;36.47
7026;BME280;3554;42.132;24.786;2022-07-23T09:05:33;99372.56;;;35.03;35.95
7026;BME280;3554;42.132;24.786;2022-07-23T09:08:08;99400.81;;;35.65;35.33
7026;BME280;3554;42.132;24.786;2022-07-23T09:10:54;99409.31;;;35.75;35.08
7026;BME280;3554;42.132;24.786;2022-07-23T09:13:34;99409.19;;;35.94;35.13
7026;BME280;3554;42.132;24.786;2022-07-23T09:16:03;99415.44;;;36.19;34.54
7026;BME280;3554;42.132;24.786;2022-07-23T09:18:32;99418.63;;;36.16;35.69
7026;BME280;3554;42.132;24.786;2022-07-23T09:21:12;99420.22;;;36.24;35.01
7026;BME280;3554;42.132;24.786;2022-07-23T09:23:41;99415.53;;;36.31;34.29
7026;BME280;3554;42.132;24.786;2022-07-23T09:26:31;99415.78;;;36.29;34.36
7026;BME280;3554;42.132;24.786;2022-07-23T09:29:08;99411.16;;;36.48;34.34
7026;BME280;3554;42.132;24.786;2022-07-23T09:31:47;99404.66;;;36.67;33.06
7026;BME280;3554;42.132;24.786;2022-07-23T09:34:16;99418.09;;;36.87;32.23
7026;BME280;3554;42.132;24.786;2022-07-23T09:36:45;99413.16;;;36.95;32.06
7026;BME280;3554;42.132;24.786;2022-07-23T09:39:13;99413.19;;;37.07;31.86
7026;BME280;3554;42.132;24.786;2022-07-23T09:41:43;99407.31;;;36.92;31.67
7026;BME280;3554;42.132;24.786;2022-07-23T09:44:13;99390.97;;;37.03;34.32
7026;BME280;3554;42.132;24.786;2022-07-23T09:46:41;99381.19;;;36.96;35.98
7026;BME280;3554;42.132;24.786;2022-07-23T09:49:14;99390.00;;;36.80;35.20
7026;BME280;3554;42.132;24.786;2022-07-23T09:51:47;99379.69;;;36.09;34.77
7026;BME280;3554;42.132;24.786;2022-07-23T09:54:27;99383.59;;;36.38;34.09
7026;BME280;3554;42.132;24.786;2022-07-23T09:56:56;99372.84;;;36.43;32.76
7026;BME280;3554;42.132;24.786;2022-07-23T09:59:25;99388.19;;;36.74;33.22
7026;BME280;3554;42.132;24.786;2022-07-23T10:01:53;99379.63;;;36.88;33.80
7026;BME280;3554;42.132;24.786;2022-07-23T10:04:22;99356.66;;;36.78;33.59
7026;BME280;3554;42.132;24.786;2022-07-23T10:06:53;99368.81;;;37.11;34.16
7026;BME280;3554;42.132;24.786;2022-07-23T10:09:24;99368.78;;;37.29;31.62
7026;BME280;3554;42.132;24.786;2022-07-23T10:11:52;99385.31;;;37.46;28.91
7026;BME280;3554;42.132;24.786;2022-07-23T10:14:22;99381.53;;;37.58;28.56
7026;BME280;3554;42.132;24.786;2022-07-23T10:16:49;99382.16;;;37.72;27.89
7026;BME280;3554;42.132;24.786;2022-07-23T10:19:17;99381.56;;;37.70;26.99
7026;BME280;3554;42.132;24.786;2022-07-23T10:21:46;99375.63;;;37.73;28.31
7026;BME280;3554;42.132;24.786;2022-07-23T10:24:24;99364.78;;;37.67;27.50
7026;BME280;3554;42.132;24.786;2022-07-23T10:27:04;99372.81;;;37.09;27.26
7026;BME280;3554;42.132;24.786;2022-07-23T10:29:45;99376.25;;;37.04;26.49
7026;BME280;3554;42.132;24.786;2022-07-23T10:32:19;99365.78;;;37.01;25.65
7026;BME280;3554;42.132;24.786;2022-07-23T10:34:54;99373.25;;;37.24;25.68
7026;BME280;3554;42.132;24.786;2022-07-23T10:37:27;99373.28;;;37.35;26.21
7026;BME280;3554;42.132;24.786;2022-07-23T10:40:15;99361.53;;;37.05;26.01
7026;BME280;3554;42.132;24.786;2022-07-23T10:42:43;99360.84;;;36.62;26.16
7026;BME280;3554;42.132;24.786;2022-07-23T10:45:30;99347.97;;;36.15;26.67
7026;BME280;3554;42.132;24.786;2022-07-23T10:48:12;99345.91;;;36.65;26.90
7026;BME280;3554;42.132;24.786;2022-07-23T10:50:40;99323.06;;;36.77;26.28
7026;BME280;3554;42.132;24.786;2022-07-23T10:53:13;99335.50;;;37.03;25.77
7026;BME280;3554;42.132;24.786;2022-07-23T10:55:48;99331.97;;;37.02;25.74
7026;BME280;3554;42.132;24.786;2022-07-23T10:58:20;99329.22;;;37.32;26.20
7026;BME280;3554;42.132;24.786;2022-07-23T11:00:48;99321.75;;;37.50;26.17
7026;BME280;3554;42.132;24.786;2022-07-23T11:03:32;99316.75;;;37.71;25.99
7026;BME280;3554;42.132;24.786;2022-07-23T11:06:02;99312.19;;;37.83;25.15
7026;BME280;3554;42.132;24.786;2022-07-23T11:08:29;99328.22;;;37.79;24.36
7026;BME280;3554;42.132;24.786;2022-07-23T11:11:09;99314.78;;;37.89;24.32
7026;BME280;3554;42.132;24.786;2022-07-23T11:13:39;99322.72;;;37.91;24.26
7026;BME280;3554;42.132;24.786;2022-07-23T11:16:20;99265.84;;;37.00;25.37
7026;BME280;3554;42.132;24.786;2022-07-23T11:18:59;99195.81;;;36.65;24.99
7026;BME280;3554;42.132;24.786;2022-07-23T11:21:49;99307.03;;;37.63;25.03
7026;BME280;3554;42.132;24.786;2022-07-23T11:24:24;99305.63;;;37.84;24.36
7026;BME280;3554;42.132;24.786;2022-07-23T11:27:01;99308.81;;;37.69;24.87
7026;BME280;3554;42.132;24.786;2022-07-23T11:29:55;99298.97;;;37.80;26.61
7026;BME280;3554;42.132;24.786;2022-07-23T11:32:36;99300.66;;;37.81;25.95
7026;BME280;3554;42.132;24.786;2022-07-23T11:35:35;99303.59;;;38.02;26.20
7026;BME280;3554;42.132;24.786;2022-07-23T11:38:06;99293.00;;;38.06;26.13
7026;BME280;3554;42.132;24.786;2022-07-23T11:40:35;99295.03;;;37.99;26.55
7026;BME280;3554;42.132;24.786;2022-07-23T11:43:05;99289.22;;;37.84;25.90
7026;BME280;3554;42.132;24.786;2022-07-23T11:45:34;99296.09;;;37.51;25.82
7026;BME280;3554;42.132;24.786;2022-07-23T11:48:01;99280.41;;;37.58;26.20
7026;BME280;3554;42.132;24.786;2022-07-23T11:50:28;99285.53;;;37.78;25.91
7026;BME280;3554;42.132;24.786;2022-07-23T11:52:56;99289.09;;;38.02;25.36
7026;BME280;3554;42.132;24.786;2022-07-23T11:55:24;99280.28;;;38.11;25.70
7026;BME280;3554;42.132;24.786;2022-07-23T11:57:52;99262.09;;;37.71;24.83
7026;BME280;3554;42.132;24.786;2022-07-23T12:00:21;99278.88;;;37.74;25.38
7026;BME280;3554;42.132;24.786;2022-07-23T12:02:51;99275.41;;;38.02;26.09
7026;BME280;3554;42.132;24.786;2022-07-23T12:05:20;99275.72;;;38.17;25.49
7026;BME280;3554;42.132;24.786;2022-07-23T12:07:49;99274.25;;;37.75;25.03
7026;BME280;3554;42.132;24.786;2022-07-23T12:10:17;99276.00;;;37.46;24.22
7026;BME280;3554;42.132;24.786;2022-07-23T12:12:46;99248.81;;;37.39;24.54
7026;BME280;3554;42.132;24.786;2022-07-23T12:15:16;99257.25;;;37.38;24.43
7026;BME280;3554;42.132;24.786;2022-07-23T12:17:46;99265.78;;;37.53;24.47
7026;BME280;3554;42.132;24.786;2022-07-23T12:20:15;99263.78;;;37.72;24.30
7026;BME280;3554;42.132;24.786;2022-07-23T12:22:44;99261.88;;;37.84;23.99
7026;BME280;3554;42.132;24.786;2022-07-23T12:25:12;99261.00;;;38.06;24.03
7026;BME280;3554;42.132;24.786;2022-07-23T12:27:40;99245.97;;;38.32;24.35
7026;BME280;3554;42.132;24.786;2022-07-23T12:30:22;99222.88;;;38.39;23.52
7026;BME280;3554;42.132;24.786;2022-07-23T12:32:53;99246.72;;;38.16;23.69
7026;BME280;3554;42.132;24.786;2022-07-23T12:35:21;99205.84;;;37.98;23.96
7026;BME280;3554;42.132;24.786;2022-07-23T12:37:50;99229.56;;;38.32;23.80
7026;BME280;3554;42.132;24.786;2022-07-23T12:40:25;99234.59;;;38.51;23.73
7026;BME280;3554;42.132;24.786;2022-07-23T12:42:55;99232.97;;;38.67;23.89
7026;BME280;3554;42.132;24.786;2022-07-23T12:45:22;99226.59;;;38.62;23.16
7026;BME280;3554;42.132;24.786;2022-07-23T12:48:03;99217.84;;;38.93;23.50
7026;BME280;3554;42.132;24.786;2022-07-23T12:50:39;99212.84;;;38.73;23.54
7026;BME280;3554;42.132;24.786;2022-07-23T12:53:08;99213.03;;;38.55;23.91
7026;BME280;3554;42.132;24.786;2022-07-23T12:55:36;99212.09;;;38.61;24.65
7026;BME280;3554;42.132;24.786;2022-07-23T12:58:08;99190.03;;;38.56;24.08
7026;BME280;3554;42.132;24.786;2022-07-23T13:00:53;99205.81;;;38.77;23.91
7026;BME280;3554;42.132;24.786;2022-07-23T13:03:27;99208.75;;;38.76;23.49
7026;BME280;3554;42.132;24.786;2022-07-23T13:05:54;99211.91;;;38.68;23.89
7026;BME280;3554;42.132;24.786;2022-07-23T13:08:22;99199.06;;;38.68;23.29
7026;BME280;3554;42.132;24.786;2022-07-23T13:10:49;99200.91;;;38.96;23.50
7026;BME280;3554;42.132;24.786;2022-07-23T13:13:18;99197.84;;;38.92;23.24
7026;BME280;3554;42.132;24.786;2022-07-23T13:15:46;99189.31;;;39.05;23.65